sensor_id;sensor_type;location;lat;lon;timestamp;noise_LAeq;noise_LA_min;noise_LA_max;noise_LA01;noise_LA95
186;Laerm;55473;48.800;9.002;2023-04-09T00:00:39;35.04;33.12;43.62;;
186;Laerm;55473;48.800;9.002;2023-04-09T00:03:06;40.43;33.26;55.82;;
186;Laerm;55473;48.800;9.002;2023-04-09T00:05:31;35.87;33.09;44.17;;
186;Laerm;55473;48.800;9.002;2023-04-09T00:07:57;35.95;32.71;43.38;;
186;Laerm;55473;48.800;9.002;2023-04-09T00:10:23;37.02;33.12;46.70;;
186;Laerm;55473;48.800;9.002;2023-04-09T00:12:49;34.58;32.55;38.56;;
186;Laerm;55473;48.800;9.002;2023-04-09T00:15:15;35.28;32.48;46.64;;
186;Laerm;55473;48.800;9.002;2023-04-09T00:17:41;42.63;33.20;55.10;;
186;Laerm;55473;48.800;9.002;2023-04-09T00:20:08;38.18;32.38;47.95;;
186;Laerm;55473;48.800;9.002;2023-04-09T00:22:34;35.12;32.62;38.69;;
186;Laerm;55473;48.800;9.002;2023-04-09T00:25:00;35.80;32.59;44.73;;
186;Laerm;55473;48.800;9.002;2023-04-09T00:27:26;35.19;32.65;45.09;;
186;Laerm;55473;48.800;9.002;2023-04-09T00:29:55;34.95;32.82;40.27;;
186;Laerm;55473;48.800;9.002;2023-04-09T00:32:21;35.42;32.62;49.19;;
186;Laerm;55473;48.800;9.002;2023-04-09T00:34:47;34.99;32.41;41.71;;
186;Laerm;55473;48.800;9.002;2023-04-09T00:37:13;36.41;32.92;47.31;;
186;Laerm;55473;48.800;9.002;2023-04-09T00:39:39;35.24;32.97;42.21;;
186;Laerm;55473;48.800;9.002;2023-04-09T00:42:05;36.37;32.91;41.66;;
186;Laerm;55473;48.800;9.002;2023-04-09T00:44:31;36.09;33.01;53.52;;
186;Laerm;55473;48.800;9.002;2023-04-09T00:46:58;43.63;33.54;57.19;;
186;Laerm;55473;48.800;9.002;2023-04-09T00:49:25;36.95;32.68;44.10;;
186;Laerm;55473;48.800;9.002;2023-04-09T00:51:52;36.02;32.95;43.48;;
186;Laerm;55473;48.800;9.002;2023-04-09T00:54:18;34.62;32.16;39.26;;
186;Laerm;55473;48.800;9.002;2023-04-09T00:56:45;35.47;32.34;53.71;;
186;Laerm;55473;48.800;9.002;2023-04-09T00:59:11;36.26;33.14;47.63;;
186;Laerm;55473;48.800;9.002;2023-04-09T01:01:37;35.81;32.37;43.41;;
186;Laerm;55473;48.800;9.002;2023-04-09T01:04:04;34.34;32.20;40.18;;
186;Laerm;55473;48.800;9.002;2023-04-09T01:06:52;34.72;32.60;43.27;;
186;Laerm;55473;48.800;9.002;2023-04-09T01:09:38;35.58;32.49;44.57;;
186;Laerm;55473;48.800;9.002;2023-04-09T01:18:09;43.55;32.50;56.75;;
186;Laerm;55473;48.800;9.002;2023-04-09T01:20:46;35.55;32.38;43.74;;
186;Laerm;55473;48.800;9.002;2023-04-09T01:23:40;34.56;32.35;40.09;;
186;Laerm;55473;48.800;9.002;2023-04-09T01:28:53;36.19;32.54;43.45;;
186;Laerm;55473;48.800;9.002;2023-04-09T01:31:28;34.39;32.00;40.72;;
186;Laerm;55473;48.800;9.002;2023-04-09T01:33:56;34.95;31.94;42.39;;
186;Laerm;55473;48.800;9.002;2023-04-09T01:36:26;36.02;32.38;45.44;;
186;Laerm;55473;48.800;9.002;2023-04-09T01:38:55;34.75;32.53;39.64;;
186;Laerm;55473;48.800;9.002;2023-04-09T01:41:23;35.21;32.78;40.21;;
186;Laerm;55473;48.800;9.002;2023-04-09T01:43:51;37.90;33.01;50.18;;
186;Laerm;55473;48.800;9.002;2023-04-09T01:46:20;44.96;33.17;58.77;;
186;Laerm;55473;48.800;9.002;2023-04-09T01:48:47;36.88;32.73;46.36;;
186;Laerm;55473;48.800;9.002;2023-04-09T01:51:14;35.80;32.73;45.89;;
186;Laerm;55473;48.800;9.002;2023-04-09T01:53:41;35.10;32.15;46.35;;
186;Laerm;55473;48.800;9.002;2023-04-09T01:56:08;34.40;32.04;45.78;;
186;Laerm;55473;48.800;9.002;2023-04-09T01:58:34;36.34;32.38;47.96;;
186;Laerm;55473;48.800;9.002;2023-04-09T02:01:46;36.00;32.68;49.32;;
186;Laerm;55473;48.800;9.002;2023-04-09T02:04:23;36.58;32.24;46.78;;
186;Laerm;55473;48.800;9.002;2023-04-09T02:07:07;35.14;32.55;49.93;;
186;Laerm;55473;48.800;9.002;2023-04-09T02:09:38;35.32;32.76;48.23;;
186;Laerm;55473;48.800;9.002;2023-04-09T02:12:12;37.81;32.92;50.51;;
186;Laerm;55473;48.800;9.002;2023-04-09T02:14:39;36.10;32.59;49.30;;
186;Laerm;55473;48.800;9.002;2023-04-09T02:17:06;38.34;32.80;49.20;;
186;Laerm;55473;48.800;9.002;2023-04-09T02:19:46;40.37;32.98;48.79;;
186;Laerm;55473;48.800;9.002;2023-04-09T02:22:14;36.54;32.76;46.10;;
186;Laerm;55473;48.800;9.002;2023-04-09T02:24:40;36.00;32.96;46.19;;
186;Laerm;55473;48.800;9.002;2023-04-09T02:27:07;37.60;32.57;47.85;;
186;Laerm;55473;48.800;9.002;2023-04-09T02:29:33;36.63;32.49;46.96;;
186;Laerm;55473;48.800;9.002;2023-04-09T02:31:59;36.38;32.52;45.95;;
186;Laerm;55473;48.800;9.002;2023-04-09T02:34:26;39.16;32.86;50.65;;
186;Laerm;55473;48.800;9.002;2023-04-09T02:36:52;35.82;32.95;45.64;;
186;Laerm;55473;48.800;9.002;2023-04-09T02:39:18;36.30;32.61;48.34;;
186;Laerm;55473;48.800;9.002;2023-04-09T02:41:44;37.43;33.08;49.27;;
186;Laerm;55473;48.800;9.002;2023-04-09T02:44:10;43.71;33.92;54.05;;
186;Laerm;55473;48.800;9.002;2023-04-09T02:46:38;36.95;32.62;49.31;;
186;Laerm;55473;48.800;9.002;2023-04-09T02:49:04;36.00;32.62;49.46;;
186;Laerm;55473;48.800;9.002;2023-04-09T02:51:29;38.78;32.50;49.03;;
186;Laerm;55473;48.800;9.002;2023-04-09T02:53:56;39.03;32.61;51.53;;
186;Laerm;55473;48.800;9.002;2023-04-09T02:56:21;39.05;32.60;51.94;;
186;Laerm;55473;48.800;9.002;2023-04-09T02:58:47;44.74;32.26;68.96;;
186;Laerm;55473;48.800;9.002;2023-04-09T03:01:16;52.99;32.87;69.89;;
186;Laerm;55473;48.800;9.002;2023-04-09T03:03:42;51.04;32.71;70.15;;
186;Laerm;55473;48.800;9.002;2023-04-09T03:06:08;53.29;32.41;70.60;;
186;Laerm;55473;48.800;9.002;2023-04-09T03:08:34;45.81;33.20;66.89;;
186;Laerm;55473;48.800;9.002;2023-04-09T03:11:00;41.16;32.83;56.63;;
186;Laerm;55473;48.800;9.002;2023-04-09T03:13:29;43.05;33.24;60.44;;
186;Laerm;55473;48.800;9.002;2023-04-09T03:15:55;56.16;33.26;71.12;;
186;Laerm;55473;48.800;9.002;2023-04-09T03:18:21;55.56;33.59;70.64;;
186;Laerm;55473;48.800;9.002;2023-04-09T03:20:47;51.69;32.97;67.26;;
186;Laerm;55473;48.800;9.002;2023-04-09T03:23:13;51.72;32.94;68.28;;
186;Laerm;55473;48.800;9.002;2023-04-09T03:25:40;52.02;32.67;69.62;;
186;Laerm;55473;48.800;9.002;2023-04-09T03:28:06;55.36;32.79;72.95;;
186;Laerm;55473;48.800;9.002;2023-04-09T03:30:31;58.12;33.12;72.81;;
186;Laerm;55473;48.800;9.002;2023-04-09T03:32:57;56.44;33.71;71.93;;
186;Laerm;55473;48.800;9.002;2023-04-09T03:35:24;57.85;33.32;69.63;;
186;Laerm;55473;48.800;9.002;2023-04-09T03:37:50;54.52;33.25;68.91;;
186;Laerm;55473;48.800;9.002;2023-04-09T03:40:16;53.88;33.54;67.97;;
186;Laerm;55473;48.800;9.002;2023-04-09T03:42:43;55.37;33.43;69.80;;
186;Laerm;55473;48.800;9.002;2023-04-09T03:45:09;52.57;34.22;72.14;;
186;Laerm;55473;48.800;9.002;2023-04-09T03:47:35;48.47;34.12;64.19;;
186;Laerm;55473;48.800;9.002;2023-04-09T03:50:01;51.22;33.78;65.25;;
186;Laerm;55473;48.800;9.002;2023-04-09T03:52:27;50.57;34.27;69.77;;
186;Laerm;55473;48.800;9.002;2023-04-09T03:54:53;53.83;34.90;71.23;;
186;Laerm;55473;48.800;9.002;2023-04-09T03:57:19;59.69;35.65;75.05;;
186;Laerm;55473;48.800;9.002;2023-04-09T03:59:45;60.66;34.82;74.44;;
186;Laerm;55473;48.800;9.002;2023-04-09T04:02:11;60.84;36.42;76.40;;
186;Laerm;55473;48.800;9.002;2023-04-09T04:04:37;61.30;35.84;76.15;;
186;Laerm;55473;48.800;9.002;2023-04-09T04:07:03;58.73;37.44;75.28;;
186;Laerm;55473;48.800;9.002;2023-04-09T04:09:29;56.43;35.25;69.82;;
186;Laerm;55473;48.800;9.002;2023-04-09T04:11:55;55.85;36.52;71.01;;
186;Laerm;55473;48.800;9.002;2023-04-09T04:14:23;58.97;37.44;73.15;;
186;Laerm;55473;48.800;9.002;2023-04-09T04:16:49;56.55;37.49;67.82;;
186;Laerm;55473;48.800;9.002;2023-04-09T04:19:15;55.93;39.13;69.47;;
186;Laerm;55473;48.800;9.002;2023-04-09T04:21:41;52.75;38.34;66.43;;
186;Laerm;55473;48.800;9.002;2023-04-09T04:24:07;58.53;37.80;75.02;;
186;Laerm;55473;48.800;9.002;2023-04-09T04:26:33;52.61;37.05;66.69;;
186;Laerm;55473;48.800;9.002;2023-04-09T04:28:59;52.09;36.85;66.31;;
186;Laerm;55473;48.800;9.002;2023-04-09T04:31:25;55.37;37.27;67.40;;
186;Laerm;55473;48.800;9.002;2023-04-09T04:33:50;56.07;36.38;68.63;;
186;Laerm;55473;48.800;9.002;2023-04-09T04:36:16;51.41;35.92;67.79;;
186;Laerm;55473;48.800;9.002;2023-04-09T04:38:42;54.02;35.11;70.21;;
186;Laerm;55473;48.800;9.002;2023-04-09T04:41:10;48.47;35.44;65.64;;
186;Laerm;55473;48.800;9.002;2023-04-09T04:43:36;53.41;35.86;72.08;;
186;Laerm;55473;48.800;9.002;2023-04-09T04:46:02;56.01;35.93;73.63;;
186;Laerm;55473;48.800;9.002;2023-04-09T04:48:28;50.52;36.32;62.72;;
186;Laerm;55473;48.800;9.002;2023-04-09T04:50:58;47.13;35.93;64.20;;
186;Laerm;55473;48.800;9.002;2023-04-09T04:53:24;46.98;35.85;58.59;;
186;Laerm;55473;48.800;9.002;2023-04-09T04:55:50;50.11;34.57;67.86;;
186;Laerm;55473;48.800;9.002;2023-04-09T04:58:16;53.88;34.45;69.74;;
186;Laerm;55473;48.800;9.002;2023-04-09T05:00:43;52.02;35.41;68.74;;
186;Laerm;55473;48.800;9.002;2023-04-09T05:03:09;49.67;34.69;68.96;;
186;Laerm;55473;48.800;9.002;2023-04-09T05:05:35;55.46;34.31;70.92;;
186;Laerm;55473;48.800;9.002;2023-04-09T05:08:01;47.30;35.39;65.02;;
186;Laerm;55473;48.800;9.002;2023-04-09T05:10:26;47.09;34.35;62.98;;
186;Laerm;55473;48.800;9.002;2023-04-09T05:12:52;45.90;34.94;63.16;;
186;Laerm;55473;48.800;9.002;2023-04-09T05:15:18;52.41;34.87;70.14;;
186;Laerm;55473;48.800;9.002;2023-04-09T05:17:44;57.88;35.99;73.59;;
186;Laerm;55473;48.800;9.002;2023-04-09T05:20:12;56.24;36.60;70.92;;
186;Laerm;55473;48.800;9.002;2023-04-09T05:22:38;52.16;35.75;65.69;;
186;Laerm;55473;48.800;9.002;2023-04-09T05:25:04;44.23;35.57;60.00;;
186;Laerm;55473;48.800;9.002;2023-04-09T05:27:30;45.62;35.21;60.02;;
186;Laerm;55473;48.800;9.002;2023-04-09T05:29:56;43.52;34.27;58.18;;
186;Laerm;55473;48.800;9.002;2023-04-09T05:32:22;52.31;34.63;74.16;;
186;Laerm;55473;48.800;9.002;2023-04-09T05:34:48;50.06;34.65;68.31;;
186;Laerm;55473;48.800;9.002;2023-04-09T05:37:14;52.94;35.19;68.80;;
186;Laerm;55473;48.800;9.002;2023-04-09T05:39:40;53.08;34.55;67.26;;
186;Laerm;55473;48.800;9.002;2023-04-09T05:42:06;53.00;34.88;67.72;;
186;Laerm;55473;48.800;9.002;2023-04-09T05:44:31;52.12;35.69;69.51;;
186;Laerm;55473;48.800;9.002;2023-04-09T05:46:57;52.47;34.66;70.38;;
186;Laerm;55473;48.800;9.002;2023-04-09T05:49:23;53.04;34.88;73.41;;
186;Laerm;55473;48.800;9.002;2023-04-09T05:51:50;45.87;33.95;71.28;;
186;Laerm;55473;48.800;9.002;2023-04-09T05:54:16;41.93;33.89;66.98;;
186;Laerm;55473;48.800;9.002;2023-04-09T05:56:42;49.81;34.20;73.91;;
186;Laerm;55473;48.800;9.002;2023-04-09T05:59:08;43.20;34.70;59.80;;
186;Laerm;55473;48.800;9.002;2023-04-09T06:01:34;46.86;34.89;65.46;;
186;Laerm;55473;48.800;9.002;2023-04-09T06:04:00;52.25;44.17;59.49;;
186;Laerm;55473;48.800;9.002;2023-04-09T06:06:25;53.34;39.46;72.35;;
186;Laerm;55473;48.800;9.002;2023-04-09T06:08:52;45.02;34.75;59.34;;
186;Laerm;55473;48.800;9.002;2023-04-09T06:11:17;47.19;34.11;58.11;;
186;Laerm;55473;48.800;9.002;2023-04-09T06:13:43;44.18;34.25;57.42;;
186;Laerm;55473;48.800;9.002;2023-04-09T06:16:09;42.02;34.40;56.71;;
186;Laerm;55473;48.800;9.002;2023-04-09T06:18:36;49.82;35.39;68.68;;
186;Laerm;55473;48.800;9.002;2023-04-09T06:21:07;45.81;34.95;65.50;;
186;Laerm;55473;48.800;9.002;2023-04-09T06:23:35;45.60;34.06;68.15;;
186;Laerm;55473;48.800;9.002;2023-04-09T06:26:01;43.16;34.02;62.92;;
186;Laerm;55473;48.800;9.002;2023-04-09T06:28:28;54.39;34.89;73.91;;
186;Laerm;55473;48.800;9.002;2023-04-09T06:30:54;47.97;34.22;63.22;;
186;Laerm;55473;48.800;9.002;2023-04-09T06:33:20;47.00;35.04;64.44;;
186;Laerm;55473;48.800;9.002;2023-04-09T06:35:47;44.50;34.68;57.08;;
186;Laerm;55473;48.800;9.002;2023-04-09T06:38:17;45.93;34.77;61.34;;
186;Laerm;55473;48.800;9.002;2023-04-09T06:40:43;41.72;35.12;53.41;;
186;Laerm;55473;48.800;9.002;2023-04-09T06:43:09;47.37;36.00;61.42;;
186;Laerm;55473;48.800;9.002;2023-04-09T06:45:36;46.96;35.36;63.43;;
186;Laerm;55473;48.800;9.002;2023-04-09T06:48:03;47.48;35.59;61.78;;
186;Laerm;55473;48.800;9.002;2023-04-09T06:50:30;46.56;34.77;66.93;;
186;Laerm;55473;48.800;9.002;2023-04-09T06:52:56;44.50;33.76;62.41;;
186;Laerm;55473;48.800;9.002;2023-04-09T06:55:22;40.56;33.99;57.98;;
186;Laerm;55473;48.800;9.002;2023-04-09T06:57:48;42.61;34.87;57.10;;
186;Laerm;55473;48.800;9.002;2023-04-09T07:00:14;42.71;34.21;61.18;;
186;Laerm;55473;48.800;9.002;2023-04-09T07:02:41;45.85;33.65;65.37;;
186;Laerm;55473;48.800;9.002;2023-04-09T07:05:07;50.52;35.17;67.64;;
186;Laerm;55473;48.800;9.002;2023-04-09T07:07:33;42.72;34.31;56.47;;
186;Laerm;55473;48.800;9.002;2023-04-09T07:09:59;53.49;34.84;73.99;;
186;Laerm;55473;48.800;9.002;2023-04-09T07:12:33;54.09;34.96;72.25;;
186;Laerm;55473;48.800;9.002;2023-04-09T07:15:03;46.00;34.21;61.87;;
186;Laerm;55473;48.800;9.002;2023-04-09T07:17:30;44.43;34.14;60.86;;
186;Laerm;55473;48.800;9.002;2023-04-09T07:19:57;42.83;33.74;55.46;;
186;Laerm;55473;48.800;9.002;2023-04-09T07:22:25;43.04;33.20;61.12;;
186;Laerm;55473;48.800;9.002;2023-04-09T07:24:51;49.43;35.42;71.03;;
186;Laerm;55473;48.800;9.002;2023-04-09T07:27:25;41.92;33.58;52.75;;
186;Laerm;55473;48.800;9.002;2023-04-09T07:29:58;41.60;34.43;55.32;;
186;Laerm;55473;48.800;9.002;2023-04-09T07:32:26;49.46;34.06;61.89;;
186;Laerm;55473;48.800;9.002;2023-04-09T07:34:55;48.53;34.42;58.07;;
186;Laerm;55473;48.800;9.002;2023-04-09T07:37:22;52.75;33.52;70.72;;
186;Laerm;55473;48.800;9.002;2023-04-09T07:39:49;54.41;35.18;70.14;;
186;Laerm;55473;48.800;9.002;2023-04-09T07:42:16;44.82;34.85;62.98;;
186;Laerm;55473;48.800;9.002;2023-04-09T07:44:42;43.95;35.39;65.31;;
186;Laerm;55473;48.800;9.002;2023-04-09T07:47:08;52.62;35.85;72.75;;
186;Laerm;55473;48.800;9.002;2023-04-09T07:49:35;45.95;35.17;61.86;;
186;Laerm;55473;48.800;9.002;2023-04-09T07:52:04;42.62;35.33;56.86;;
186;Laerm;55473;48.800;9.002;2023-04-09T07:54:30;45.40;34.51;60.75;;
186;Laerm;55473;48.800;9.002;2023-04-09T07:56:57;51.77;43.11;67.65;;
186;Laerm;55473;48.800;9.002;2023-04-09T07:59:23;50.10;36.26;59.73;;
186;Laerm;55473;48.800;9.002;2023-04-09T08:01:49;47.28;34.42;61.81;;
186;Laerm;55473;48.800;9.002;2023-04-09T08:04:16;43.00;33.77;57.63;;
186;Laerm;55473;48.800;9.002;2023-04-09T08:06:42;44.71;32.81;59.04;;
186;Laerm;55473;48.800;9.002;2023-04-09T08:09:11;42.73;34.05;57.01;;
186;Laerm;55473;48.800;9.002;2023-04-09T08:11:37;44.17;35.54;60.23;;
186;Laerm;55473;48.800;9.002;2023-04-09T08:14:02;46.27;35.92;60.99;;
186;Laerm;55473;48.800;9.002;2023-04-09T08:16:30;47.10;34.20;62.04;;
186;Laerm;55473;48.800;9.002;2023-04-09T08:18:56;43.93;35.75;59.17;;
186;Laerm;55473;48.800;9.002;2023-04-09T08:21:22;48.13;34.94;63.57;;
186;Laerm;55473;48.800;9.002;2023-04-09T08:23:48;43.88;34.11;65.15;;
186;Laerm;55473;48.800;9.002;2023-04-09T08:26:14;40.21;34.28;56.29;;
186;Laerm;55473;48.800;9.002;2023-04-09T08:28:40;42.02;33.92;62.04;;
186;Laerm;55473;48.800;9.002;2023-04-09T08:31:08;45.76;34.82;68.35;;
186;Laerm;55473;48.800;9.002;2023-04-09T08:33:34;44.19;35.74;56.97;;
186;Laerm;55473;48.800;9.002;2023-04-09T08:36:00;44.16;35.38;57.71;;
186;Laerm;55473;48.800;9.002;2023-04-09T08:38:26;43.46;35.86;56.52;;
186;Laerm;55473;48.800;9.002;2023-04-09T08:40:52;40.52;34.18;54.88;;
186;Laerm;55473;48.800;9.002;2023-04-09T08:43:21;41.54;34.01;57.11;;
186;Laerm;55473;48.800;9.002;2023-04-09T08:45:49;43.83;35.08;61.13;;
186;Laerm;55473;48.800;9.002;2023-04-09T08:48:16;49.15;34.74;65.46;;
186;Laerm;55473;48.800;9.002;2023-04-09T08:50:45;47.65;35.60;64.85;;
186;Laerm;55473;48.800;9.002;2023-04-09T08:53:11;41.71;34.09;55.20;;
186;Laerm;55473;48.800;9.002;2023-04-09T08:55:38;40.01;33.74;51.84;;
186;Laerm;55473;48.800;9.002;2023-04-09T08:58:04;42.72;33.67;55.12;;
186;Laerm;55473;48.800;9.002;2023-04-09T09:00:36;42.69;34.15;64.94;;
186;Laerm;55473;48.800;9.002;2023-04-09T09:03:06;52.38;34.50;78.60;;
186;Laerm;55473;48.800;9.002;2023-04-09T09:05:44;44.98;34.40;67.96;;
186;Laerm;55473;48.800;9.002;2023-04-09T09:08:29;44.37;34.02;57.29;;
186;Laerm;55473;48.800;9.002;2023-04-09T09:10:55;42.73;34.02;58.84;;
186;Laerm;55473;48.800;9.002;2023-04-09T09:13:26;44.37;36.08;61.98;;
186;Laerm;55473;48.800;9.002;2023-04-09T09:18:41;48.78;38.00;62.53;;
186;Laerm;55473;48.800;9.002;2023-04-09T09:21:15;47.74;34.44;62.85;;
186;Laerm;55473;48.800;9.002;2023-04-09T09:23:43;43.04;34.46;56.57;;
186;Laerm;55473;48.800;9.002;2023-04-09T09:26:14;51.10;33.96;70.98;;
186;Laerm;55473;48.800;9.002;2023-04-09T09:28:42;46.18;33.55;63.33;;
186;Laerm;55473;48.800;9.002;2023-04-09T09:31:09;44.13;34.71;56.73;;
186;Laerm;55473;48.800;9.002;2023-04-09T09:33:35;41.44;35.08;58.24;;
186;Laerm;55473;48.800;9.002;2023-04-09T09:36:02;43.80;34.39;57.16;;
186;Laerm;55473;48.800;9.002;2023-04-09T09:38:31;45.50;35.43;60.96;;
186;Laerm;55473;48.800;9.002;2023-04-09T09:40:57;47.01;35.95;63.08;;
186;Laerm;55473;48.800;9.002;2023-04-09T09:43:23;46.90;36.00;64.34;;
186;Laerm;55473;48.800;9.002;2023-04-09T09:45:49;45.28;35.66;67.02;;
186;Laerm;55473;48.800;9.002;2023-04-09T09:48:16;47.25;35.63;60.00;;
186;Laerm;55473;48.800;9.002;2023-04-09T09:50:44;46.57;35.31;64.12;;
186;Laerm;55473;48.800;9.002;2023-04-09T09:53:13;42.94;36.35;55.24;;
186;Laerm;55473;48.800;9.002;2023-04-09T09:55:48;41.32;34.89;53.20;;
186;Laerm;55473;48.800;9.002;2023-04-09T09:59:00;43.00;34.91;57.24;;
186;Laerm;55473;48.800;9.002;2023-04-09T10:01:28;48.21;37.08;63.24;;
186;Laerm;55473;48.800;9.002;2023-04-09T10:03:56;47.24;36.84;65.30;;
186;Laerm;55473;48.800;9.002;2023-04-09T10:06:25;47.39;36.70;57.72;;
186;Laerm;55473;48.800;9.002;2023-04-09T10:08:56;43.88;36.05;60.95;;
186;Laerm;55473;48.800;9.002;2023-04-09T10:11:23;46.87;34.55;64.43;;
186;Laerm;55473;48.800;9.002;2023-04-09T10:13:57;47.48;37.83;68.58;;
186;Laerm;55473;48.800;9.002;2023-04-09T10:16:27;45.77;36.14;59.80;;
186;Laerm;55473;48.800;9.002;2023-04-09T10:18:55;48.53;35.98;64.94;;
186;Laerm;55473;48.800;9.002;2023-04-09T10:24:03;41.82;35.48;60.01;;
186;Laerm;55473;48.800;9.002;2023-04-09T10:26:40;43.33;34.71;57.74;;
186;Laerm;55473;48.800;9.002;2023-04-09T10:29:11;44.45;35.02;60.11;;
186;Laerm;55473;48.800;9.002;2023-04-09T10:32:03;45.90;34.38;58.92;;
186;Laerm;55473;48.800;9.002;2023-04-09T10:34:41;48.20;35.16;69.45;;
186;Laerm;55473;48.800;9.002;2023-04-09T10:37:29;42.88;35.06;59.51;;
186;Laerm;55473;48.800;9.002;2023-04-09T10:39:56;45.69;35.14;64.27;;
186;Laerm;55473;48.800;9.002;2023-04-09T10:42:29;43.00;34.65;60.18;;
186;Laerm;55473;48.800;9.002;2023-04-09T10:45:12;46.37;35.66;63.41;;
186;Laerm;55473;48.800;9.002;2023-04-09T10:47:41;51.37;37.26;76.20;;
186;Laerm;55473;48.800;9.002;2023-04-09T10:50:27;49.01;36.91;73.48;;
186;Laerm;55473;48.800;9.002;2023-04-09T10:53:03;44.95;35.95;59.23;;
186;Laerm;55473;48.800;9.002;2023-04-09T10:58:10;44.56;35.00;62.91;;
186;Laerm;55473;48.800;9.002;2023-04-09T11:00:42;49.20;35.14;68.65;;
186;Laerm;55473;48.800;9.002;2023-04-09T11:03:25;39.47;35.36;52.75;;
186;Laerm;55473;48.800;9.002;2023-04-09T11:06:07;44.81;35.32;59.82;;
186;Laerm;55473;48.800;9.002;2023-04-09T11:08:36;47.63;35.07;63.70;;
186;Laerm;55473;48.800;9.002;2023-04-09T11:11:03;43.86;35.35;62.13;;
186;Laerm;55473;48.800;9.002;2023-04-09T11:13:31;54.09;35.44;72.69;;
186;Laerm;55473;48.800;9.002;2023-04-09T11:15:57;44.66;34.75;59.30;;
186;Laerm;55473;48.800;9.002;2023-04-09T11:18:27;47.28;36.76;60.31;;
186;Laerm;55473;48.800;9.002;2023-04-09T11:20:59;48.67;36.55;64.13;;
186;Laerm;55473;48.800;9.002;2023-04-09T11:23:26;46.58;34.54;59.89;;
186;Laerm;55473;48.800;9.002;2023-04-09T11:25:53;41.43;34.39;56.63;;
186;Laerm;55473;48.800;9.002;2023-04-09T11:28:20;44.77;34.00;61.95;;
186;Laerm;55473;48.800;9.002;2023-04-09T11:30:48;38.88;33.78;50.04;;
186;Laerm;55473;48.800;9.002;2023-04-09T11:33:14;39.26;33.71;51.47;;
186;Laerm;55473;48.800;9.002;2023-04-09T11:35:40;39.31;34.51;52.84;;
186;Laerm;55473;48.800;9.002;2023-04-09T11:38:08;41.23;34.50;56.32;;
186;Laerm;55473;48.800;9.002;2023-04-09T11:40:35;46.51;35.71;66.85;;
186;Laerm;55473;48.800;9.002;2023-04-09T11:43:01;50.42;35.04;75.28;;
186;Laerm;55473;48.800;9.002;2023-04-09T11:45:31;43.01;36.05;54.34;;
186;Laerm;55473;48.800;9.002;2023-04-09T11:47:57;49.13;36.80;63.69;;
186;Laerm;55473;48.800;9.002;2023-04-09T11:50:24;47.66;35.17;63.88;;
186;Laerm;55473;48.800;9.002;2023-04-09T11:52:50;48.01;35.02;66.67;;
186;Laerm;55473;48.800;9.002;2023-04-09T11:55:28;48.97;35.01;66.37;;
186;Laerm;55473;48.800;9.002;2023-04-09T11:57:58;44.92;34.08;63.99;;
186;Laerm;55473;48.800;9.002;2023-04-09T12:00:28;45.39;34.25;63.09;;
186;Laerm;55473;48.800;9.002;2023-04-09T12:03:02;41.66;34.97;60.26;;
186;Laerm;55473;48.800;9.002;2023-04-09T12:05:34;42.62;34.76;57.13;;
186;Laerm;55473;48.800;9.002;2023-04-09T12:08:06;38.97;33.83;56.18;;
186;Laerm;55473;48.800;9.002;2023-04-09T12:10:36;41.18;34.59;57.39;;
186;Laerm;55473;48.800;9.002;2023-04-09T12:13:06;46.87;34.98;62.59;;
186;Laerm;55473;48.800;9.002;2023-04-09T12:15:35;49.79;37.30;61.23;;
186;Laerm;55473;48.800;9.002;2023-04-09T12:18:02;48.90;37.26;62.35;;
186;Laerm;55473;48.800;9.002;2023-04-09T12:20:38;43.28;35.10;58.57;;
186;Laerm;55473;48.800;9.002;2023-04-09T12:23:06;46.80;34.77;61.40;;
186;Laerm;55473;48.800;9.002;2023-04-09T12:25:39;50.43;34.25;65.84;;
186;Laerm;55473;48.800;9.002;2023-04-09T12:28:08;47.94;34.41;64.37;;
186;Laerm;55473;48.800;9.002;2023-04-09T12:30:34;49.54;35.03;68.35;;
186;Laerm;55473;48.800;9.002;2023-04-09T12:33:02;46.16;34.55;63.27;;
186;Laerm;55473;48.800;9.002;2023-04-09T12:35:28;44.67;35.11;62.51;;
186;Laerm;55473;48.800;9.002;2023-04-09T12:37:55;41.26;34.73;55.78;;
186;Laerm;55473;48.800;9.002;2023-04-09T12:40:21;39.78;33.90;51.21;;
186;Laerm;55473;48.800;9.002;2023-04-09T12:42:47;42.46;34.81;54.35;;
186;Laerm;55473;48.800;9.002;2023-04-09T12:45:15;42.96;35.44;60.96;;
186;Laerm;55473;48.800;9.002;2023-04-09T12:47:42;45.17;34.93;56.79;;
186;Laerm;55473;48.800;9.002;2023-04-09T12:50:10;47.42;34.99;61.85;;
186;Laerm;55473;48.800;9.002;2023-04-09T12:52:36;43.73;36.46;57.06;;
186;Laerm;55473;48.800;9.002;2023-04-09T12:55:04;43.68;35.00;58.56;;
186;Laerm;55473;48.800;9.002;2023-04-09T12:57:31;41.52;34.12;55.31;;
186;Laerm;55473;48.800;9.002;2023-04-09T12:59:57;46.08;35.68;58.37;;
186;Laerm;55473;48.800;9.002;2023-04-09T13:02:23;46.93;35.33;64.89;;
186;Laerm;55473;48.800;9.002;2023-04-09T13:04:50;54.01;34.58;70.25;;
186;Laerm;55473;48.800;9.002;2023-04-09T13:07:18;40.49;34.35;58.08;;
186;Laerm;55473;48.800;9.002;2023-04-09T13:09:45;40.70;34.08;56.75;;
186;Laerm;55473;48.800;9.002;2023-04-09T13:12:13;41.28;35.29;52.42;;
186;Laerm;55473;48.800;9.002;2023-04-09T13:14:44;46.16;35.33;58.53;;
186;Laerm;55473;48.800;9.002;2023-04-09T13:17:11;45.45;36.17;56.55;;
186;Laerm;55473;48.800;9.002;2023-04-09T13:19:37;48.56;38.95;65.17;;
186;Laerm;55473;48.800;9.002;2023-04-09T13:22:02;46.44;37.35;60.78;;
186;Laerm;55473;48.800;9.002;2023-04-09T13:24:30;43.86;36.24;58.82;;
186;Laerm;55473;48.800;9.002;2023-04-09T13:26:56;46.61;34.55;59.29;;
186;Laerm;55473;48.800;9.002;2023-04-09T13:29:22;46.65;34.23;60.18;;
186;Laerm;55473;48.800;9.002;2023-04-09T13:31:50;47.83;34.95;61.83;;
186;Laerm;55473;48.800;9.002;2023-04-09T13:34:16;45.97;35.45;61.16;;
186;Laerm;55473;48.800;9.002;2023-04-09T13:36:42;45.88;34.01;61.21;;
186;Laerm;55473;48.800;9.002;2023-04-09T13:39:08;47.22;35.11;64.18;;
186;Laerm;55473;48.800;9.002;2023-04-09T13:41:34;49.45;35.37;63.72;;
186;Laerm;55473;48.800;9.002;2023-04-09T13:44:01;53.54;38.75;68.37;;
186;Laerm;55473;48.800;9.002;2023-04-09T13:46:27;51.00;37.10;68.02;;
186;Laerm;55473;48.800;9.002;2023-04-09T13:48:53;50.07;36.80;63.27;;
186;Laerm;55473;48.800;9.002;2023-04-09T13:51:24;46.35;36.75;63.34;;
186;Laerm;55473;48.800;9.002;2023-04-09T13:53:51;48.30;35.91;66.27;;
186;Laerm;55473;48.800;9.002;2023-04-09T13:56:18;46.89;34.54;67.65;;
186;Laerm;55473;48.800;9.002;2023-04-09T13:58:44;48.04;34.97;65.58;;
186;Laerm;55473;48.800;9.002;2023-04-09T14:01:10;51.82;33.95;66.67;;
186;Laerm;55473;48.800;9.002;2023-04-09T14:03:37;45.61;34.27;62.02;;
186;Laerm;55473;48.800;9.002;2023-04-09T14:06:08;46.42;35.15;66.93;;
186;Laerm;55473;48.800;9.002;2023-04-09T14:08:35;44.59;35.25;57.86;;
186;Laerm;55473;48.800;9.002;2023-04-09T14:11:02;47.53;35.93;61.80;;
186;Laerm;55473;48.800;9.002;2023-04-09T14:13:28;47.78;35.62;59.88;;
186;Laerm;55473;48.800;9.002;2023-04-09T14:15:54;51.87;38.91;63.26;;
186;Laerm;55473;48.800;9.002;2023-04-09T14:18:20;50.45;38.99;62.85;;
186;Laerm;55473;48.800;9.002;2023-04-09T14:20:46;47.98;36.13;65.10;;
186;Laerm;55473;48.800;9.002;2023-04-09T14:23:12;44.74;34.13;65.90;;
186;Laerm;55473;48.800;9.002;2023-04-09T14:25:38;45.90;35.27;60.61;;
186;Laerm;55473;48.800;9.002;2023-04-09T14:28:04;42.79;34.59;58.92;;
186;Laerm;55473;48.800;9.002;2023-04-09T14:30:30;44.31;35.02;59.46;;